KMLJ/MLJ METAR and TAF weather

Enter ICAO airport designator
Station Type Date Time Source
KMLJ METAR 2021/05/14 13:55 UTC NOAA

KMLJ 141355Z AUTO 00000KT 10SM CLR 18/11 A3029 RMK AO2


Station Type Date Time Source
KMLJ Decoded METAR 2021/05/14 13:55 UTC NOAA

Milledgeville, Baldwin County Airport, GA, United States (KMLJ) 33-09-15N 083-14-26W
May 14, 2021 - 09:55 AM EDT / 2021.05.14 1355 UTC
Wind: Calm:0
Visibility: 10 mile(s):0
Sky conditions: clear
Temperature: 64 F (18 C)
Dew Point: 51 F (11 C)
Relative Humidity: 63%
Pressure (altimeter): 30.29 in. Hg (1025 hPa)
ob: KMLJ 141355Z AUTO 00000KT 10SM CLR 18/11 A3029 RMK AO2
cycle: 14

Station Type Date Time Source
KMLJ TAF UTC NOAA

Error!

Example: see airport list